Latest Coastal Weather Observations for Maatsuyker Island

IDT60701

Issued at 2:32 pm EST Thursday 25 August 2016 (issued every 10 minutes, with the page automatically refreshed every 10 minutes)

About coastal observations | Map of coastal stations | Coastal observations for TAS | Marine services | Other Formats
Station Details ID: 094041 Name: MAATSUYKER ISLAND LIGHTHOUSE Lat: -43.66 Lon: 146.27 Height: 146.5 m
Data from the previous 72 hours. | See also: Recent months at Maatsuyker Island
Date/Time
EST
Temp
°C
Wind Pressure Rain since
9am
mm
Weather Cloud Vis
km
Sea
Height
m
Swell
Dir  Spd
kts
Gust
kts
hPa Trend Height
m
Period
s
Dir
25/02:30pm 8.6 W 15 20 1012.2 - 0.2 - - - - - - -
25/02:00pm 8.9 W 12 17 1012.0 - 0.2 - - - - - - -
25/01:30pm 9.2 WSW 15 20 1012.0 - 0.2 - - - - - - -
25/01:00pm 9.4 WSW 13 17 1012.1 - 0.2 - - - - - - -
25/12:30pm 8.6 SSW 15 21 1012.1 - 0.2 - - - - - - -
25/12:00pm 8.3 SW 14 20 1012.3 - 0.2 - - - - - - -
25/11:30am 8.3 SSW 17 21 1012.1 - 0.2 - - - - - - -
25/11:00am 8.2 S 12 16 1012.1 - 0.2 - - - - - - -
25/10:30am 7.2 SSW 16 23 1012.1 - 0.0 - - - - - - -
25/10:17am 8.4 S 17 27 1011.8 - 0.0 - - - - - - -
25/10:00am 8.0 S 20 24 1011.7 - 0.0 - - - - - - -
25/09:30am 7.9 SSW 21 25 1011.6 - 0.0 - - - - - - -
25/09:00am 8.3 S 12 19 1011.7 R 14.0 Distant precip. Mostly cloudy 10 1 2.0 13 SW
25/08:30am 7.9 S 14 17 1011.4 - 14.0 - - - - - - -
25/08:00am 7.8 S 28 30 1010.7 - 13.6 - - - - - - -
25/07:30am 7.3 SSW 10 13 1010.9 - 13.6 - - - - - - -
25/07:00am 7.4 SSW 11 14 1010.7 - 13.6 - - - - - - -
25/06:30am 7.3 SW 11 13 1010.5 - 13.6 - - - - - - -
25/06:00am 7.1 S 10 15 1010.3 R 13.6 Fine Partly cloudy 15 <0.5 1.5 13 S
25/05:30am 7.6 S 15 19 1009.6 - 13.6 - - - - - - -
25/05:00am 7.2 E 6 14 1009.6 - 13.6 - - - - - - -
25/04:30am 7.2 S 13 16 1009.4 - 13.6 - - - - - - -
25/04:00am 7.3 SSW 15 19 1009.4 - 13.6 - - - - - - -
25/03:30am 7.4 SSW 13 17 1009.3 - 13.6 - - - - - - -
25/03:00am 7.4 W 8 13 1009.5 - 13.4 - - - - - - -
25/02:30am 7.4 W 10 14 1009.4 - 13.4 - - - - - - -
25/02:00am 7.2 SW 11 16 1009.4 - 13.4 - - - - - - -
25/01:30am 7.3 SW 11 15 1009.5 - 13.4 - - - - - - -
25/01:00am 7.1 W 13 17 1009.8 - 12.8 - - - - - - -
25/12:30am 6.4 NW 17 20 1009.6 - 12.8 - - - - - - -
25/12:00am 7.0 WNW 13 16 1010.0 - 12.8 - - - - - - -
 
Date/Time
EST
Temp
°C
Wind Pressure Rain since
9am
mm
Weather Cloud Vis
km
Sea
Height
m
Swell
Dir  Spd
kts
Gust
kts
hPa Trend Height
m
Period
s
Dir
24/11:30pm 6.5 NNW 14 18 1009.8 - 12.8 - - - - - - -
24/11:00pm 6.5 NNW 17 20 1009.8 - 12.8 - - - - - - -
24/10:30pm 6.6 NNW 11 16 1010.2 - 12.6 - - - - - - -
24/10:00pm 6.0 NW 10 16 1010.4 - 12.0 - - - - - - -
24/09:30pm 5.6 N 7 11 1010.6 - 9.0 - - - - - - -
24/09:00pm 6.8 N 7 10 1010.8 - 4.8 - - - - - - -
24/08:30pm 7.0 NW 12 15 1010.6 - 3.4 - - - - - - -
24/08:00pm 6.9 NW 14 17 1010.6 - 3.0 - - - - - - -
24/07:30pm 7.0 WNW 12 16 1010.6 - 2.6 - - - - - - -
24/07:00pm 6.9 WNW 18 22 1010.6 - 2.0 - - - - - - -
24/06:30pm 6.7 WNW 17 20 1010.4 - 2.0 - - - - - - -
24/06:00pm 6.7 NW 20 23 1010.3 - 2.0 - - - - - - -
24/05:30pm 6.5 NW 18 22 1010.1 - 2.0 - - - - - - -
24/05:00pm 6.4 NW 21 22 1009.9 - 2.0 - - - - - - -
24/04:30pm 5.9 WNW 21 29 1010.1 - 1.8 - - - - - - -
24/04:26pm 5.9 W 20 27 1010.2 - 1.6 - - - - - - -
24/04:00pm 6.8 WSW 16 21 1010.4 - 1.4 - - - - - - -
24/03:57pm 7.0 W 15 19 1010.4 - 1.4 - - - - - - -
24/03:30pm 7.5 WNW 25 30 1009.9 - 1.4 - - - - - - -
24/03:00pm 7.1 WNW 23 29 1010.1 - 1.4 - - - - - - -
24/02:54pm 7.0 WNW 19 27 1010.2 - 1.4 - - - - - - -
24/02:39pm 6.9 W 15 17 1010.4 - 1.0 - - - - - - -
24/02:30pm 6.8 NW 26 32 1010.0 - 0.8 - - - - - - -
24/02:15pm 6.6 NW 24 28 1010.0 - 0.6 - - - - - - -
24/02:00pm 6.9 WNW 23 28 1010.3 - 0.0 - - - - - - -
24/01:30pm 9.0 NW 25 28 1010.3 - 0.0 - - - - - - -
24/01:00pm 8.5 WNW 22 26 1010.7 - 0.0 - - - - - - -
24/12:30pm 8.4 NW 22 25 1011.1 - 0.0 - - - - - - -
24/12:00pm 8.0 WNW 22 26 1011.3 - 0.0 - - - - - - -
24/11:30am 8.7 WNW 18 22 1011.8 - 0.0 - - - - - - -
24/11:00am 8.2 WNW 19 23 1012.0 - 0.0 - - - - - - -
24/10:30am 8.2 WNW 19 23 1012.1 - 0.0 - - - - - - -
24/10:00am 7.7 WNW 21 24 1012.1 - 0.0 - - - - - - -
24/09:30am 7.1 WNW 18 23 1012.5 - 0.0 - - - - - - -
24/09:00am 6.5 W 13 24 1012.9 F 2.4 Distant precip. Mostly cloudy 18 1 2.0 12 S
24/08:30am 6.2 W 15 18 1012.9 - 2.4 - - - - - - -
24/08:00am 6.1 WNW 17 23 1013.0 - 2.4 - - - - - - -
24/07:30am 6.0 W 16 21 1012.9 - 2.2 - - - - - - -
24/07:00am 6.0 W 14 18 1012.7 - 2.2 - - - - - - -
24/06:30am 6.5 WNW 17 20 1012.5 - 1.6 - - - - - - -
24/06:00am 6.3 W 11 22 1012.9 R 1.6 Distant precip. Mostly cloudy 15 1 2.5 11 SW
24/05:30am 6.7 W 15 19 1012.4 - 1.4 - - - - - - -
24/05:08am 7.1 W 15 19 1012.4 - 1.4 - - - - - - -
24/05:00am 7.0 WNW 20 24 1012.2 - 1.4 - - - - - - -
24/04:30am 6.8 WNW 21 26 1012.0 - 1.4 - - - - - - -
24/04:09am 7.1 W 19 30 1012.0 - 1.4 - - - - - - -
24/04:01am 7.2 W 18 22 1012.2 - 1.4 - - - - - - -
24/04:00am 7.3 WNW 25 30 1012.2 - 1.4 - - - - - - -
24/03:30am 7.4 WNW 27 31 1011.9 - 1.4 - - - - - - -
24/03:00am 7.5 WNW 26 32 1012.4 - 1.4 - - - - - - -
24/02:30am 7.6 WNW 19 23 1012.8 - 1.4 - - - - - - -
24/02:00am 7.6 NW 27 32 1012.9 - 1.4 - - - - - - -
24/01:30am 7.5 NW 29 33 1012.8 - 1.4 - - - - - - -
24/01:00am 7.3 WNW 28 34 1013.0 - 1.4 - - - - - - -
24/12:30am 7.5 WNW 27 30 1013.0 - 1.4 - - - - - - -
24/12:07am 7.0 WNW 23 25 1013.4 - 1.4 - - - - - - -
24/12:00am 7.2 WNW 33 35 1013.3 - 1.4 - - - - - - -
 
Date/Time
EST
Temp
°C
Wind Pressure Rain since
9am
mm
Weather Cloud Vis
km
Sea
Height
m
Swell
Dir  Spd
kts
Gust
kts
hPa Trend Height
m
Period
s
Dir
23/11:57pm 7.4 WNW 33 35 1013.1 - 1.4 - - - - - - -
23/11:30pm 7.8 WNW 23 30 1013.1 - 1.4 - - - - - - -
23/11:00pm 7.5 WNW 23 28 1013.6 - 1.4 - - - - - - -
23/10:30pm 7.7 WNW 25 29 1013.5 - 1.4 - - - - - - -
23/10:00pm 7.0 WNW 24 31 1013.7 - 1.4 - - - - - - -
23/09:30pm 7.4 WNW 23 27 1013.9 - 1.4 - - - - - - -
23/09:00pm 7.5 WNW 23 29 1013.9 - 1.4 - - - - - - -
23/08:30pm 7.7 NW 26 33 1013.2 - 1.4 - - - - - - -
23/08:00pm 7.2 WNW 25 33 1013.4 - 1.2 - - - - - - -
23/07:30pm 7.3 NW 27 35 1013.3 - 1.2 - - - - - - -
23/07:19pm 7.6 NW 27 40 1012.9 - 0.8 - - - - - - -
23/07:00pm 6.7 NW 30 35 1013.2 - 0.8 - - - - - - -
23/06:30pm 7.9 NW 25 28 1013.1 - 0.2 - - - - - - -
23/06:00pm 7.7 NW 28 32 1012.9 - 0.2 - - - - - - -
23/05:30pm 7.6 NW 27 30 1012.9 - 0.2 - - - - - - -
23/05:00pm 8.0 NW 28 32 1012.9 - 0.2 - - - - - - -
23/04:30pm 8.4 WNW 21 28 1013.1 - 0.2 - - - - - - -
23/04:00pm 8.9 WNW 21 26 1013.1 - 0.2 - - - - - - -
23/03:30pm 9.3 WNW 20 26 1012.8 - 0.2 - - - - - - -
23/03:04pm 8.7 W 19 23 1013.5 - 0.2 - - - - - - -
23/03:00pm 9.6 WNW 22 27 1013.2 - 0.2 - - - - - - -
23/02:41pm 8.6 W 19 23 1013.3 - 0.2 - - - - - - -
23/02:30pm 9.4 NW 25 28 1012.9 - 0.2 - - - - - - -
23/02:00pm 8.6 WNW 23 30 1012.9 - 0.2 - - - - - - -
23/01:30pm 8.4 NW 26 31 1012.6 - 0.2 - - - - - - -
23/01:00pm 8.8 NW 25 30 1012.8 - 0.2 - - - - - - -
23/12:30pm 9.0 WNW 27 32 1012.8 - 0.2 - - - - - - -
23/12:00pm 8.3 NW 30 33 1013.1 - 0.2 - - - - - - -
23/11:52am 8.1 WNW 23 33 1013.0 - 0.2 - - - - - - -
23/11:30am 8.3 WNW 25 29 1013.3 - 0.2 - - - - - - -
23/11:00am 8.5 WNW 21 25 1013.5 - 0.2 - - - - - - -
23/10:30am 8.0 NW 25 30 1013.3 - 0.2 - - - - - - -
23/10:02am 7.2 WNW 23 33 1013.3 - 0.2 - - - - - - -
23/10:00am 7.1 WNW 22 26 1013.5 - 0.2 - - - - - - -
23/09:30am 7.6 WNW 23 27 1013.4 - 0.2 - - - - - - -
23/09:00am 6.4 NW 21 30 1013.4 R 4.0 Showers Mostly cloudy 15 2 2.0 12 SW
23/08:30am 7.2 NW 25 32 1013.1 - 3.8 - - - - - - -
23/08:00am 6.7 WNW 21 29 1012.9 - 3.8 - - - - - - -
23/07:30am 7.0 NW 23 27 1012.7 - 3.8 - - - - - - -
23/07:23am 6.6 NW 23 25 1012.6 - 3.8 - - - - - - -
23/07:13am 6.6 NW 33 35 1012.2 - 3.4 - - - - - - -
23/07:00am 7.1 WNW 23 28 1012.5 - 3.4 - - - - - - -
23/06:30am 7.4 NW 26 30 1012.0 - 3.4 - - - - - - -
23/06:00am 7.4 NW 21 31 1012.2 S 3.4 Distant precip. Mostly cloudy 20 2 1.5 11 SW
23/05:30am 7.3 NW 25 30 1012.0 - 3.2 - - - - - - -
23/05:00am 6.6 WNW 23 29 1011.9 - 3.2 - - - - - - -
23/04:30am 7.1 NW 26 31 1011.7 - 3.0 - - - - - - -
23/04:00am 7.2 WNW 25 31 1011.5 - 3.0 - - - - - - -
23/03:40am 7.0 WNW 23 33 1011.8 - 3.0 - - - - - - -
23/03:30am 7.2 NW 27 32 1011.3 - 3.0 - - - - - - -
23/03:00am 7.0 WNW 27 29 1011.7 - 3.0 - - - - - - -
23/02:30am 7.4 NW 25 30 1011.4 - 3.0 - - - - - - -
23/02:00am 6.9 WNW 26 29 1011.8 - 3.0 - - - - - - -
23/01:30am 7.3 NW 27 32 1011.6 - 3.0 - - - - - - -
23/01:00am 6.7 WNW 26 29 1011.7 - 3.0 - - - - - - -
23/12:31am 6.1 NW 26 36 1011.6 - 3.0 - - - - - - -
23/12:30am 6.1 NW 27 36 1011.4 - 3.0 - - - - - - -
23/12:28am 6.5 NW 26 36 1011.1 - 3.0 - - - - - - -
23/12:00am 7.1 NW 26 29 1011.6 - 2.8 - - - - - - -
 
Date/Time
EST
Temp
°C
Wind Pressure Rain since
9am
mm
Weather Cloud Vis
km
Sea
Height
m
Swell
Dir  Spd
kts
Gust
kts
hPa Trend Height
m
Period
s
Dir
22/11:30pm 6.8 WNW 27 31 1011.2 - 2.6 - - - - - - -
22/11:00pm 6.8 WNW 23 28 1011.7 - 2.4 - - - - - - -
22/10:30pm 7.6 NW 27 32 1011.2 - 2.4 - - - - - - -
22/10:00pm 7.5 NW 26 29 1011.2 - 2.4 - - - - - - -
22/09:30pm 7.2 NW 26 31 1011.0 - 2.4 - - - - - - -
22/09:00pm 7.4 WNW 26 31 1011.1 - 2.4 - - - - - - -
22/08:30pm 7.1 NW 25 32 1010.7 - 2.4 - - - - - - -
22/08:18pm 6.6 NW 24 34 1011.0 - 2.4 - - - - - - -
22/08:00pm 7.4 NW 26 29 1010.7 - 2.4 - - - - - - -
22/07:30pm 7.1 NW 28 33 1010.3 - 2.2 - - - - - - -
22/07:00pm 6.6 NW 30 36 1010.0 - 2.2 - - - - - - -
22/06:30pm 7.1 NW 25 32 1009.9 - 2.2 - - - - - - -
22/06:17pm 7.0 NW 29 39 1009.6 - 2.0 - - - - - - -
22/06:00pm 7.4 NW 27 32 1009.7 - 2.0 - - - - - - -
22/05:30pm 7.0 NW 24 27 1009.5 - 2.0 - - - - - - -
22/05:00pm 7.3 NW 27 31 1009.3 - 2.0 - - - - - - -
22/04:34pm 6.9 NW 26 36 1009.0 - 2.0 - - - - - - -
22/04:30pm 6.4 NW 27 36 1008.9 - 2.0 - - - - - - -
22/04:27pm 6.8 WNW 25 36 1008.9 - 1.8 - - - - - - -
22/04:00pm 7.3 NW 25 31 1009.1 - 1.4 - - - - - - -
22/03:42pm 7.5 NW 29 40 1008.4 - 1.4 - - - - - - -
22/03:30pm 7.7 NW 27 32 1008.7 - 1.4 - - - - - - -
22/03:00pm 7.1 NW 31 37 1008.5 - 1.4 - - - - - - -
22/02:38pm 7.1 NW 27 37 1008.7 - 1.2 - - - - - - -

Other Formats:

Comma delimited format used in spreadsheet applications
http://www.bom.gov.au/fwo/IDT60701/IDT60701.94962.axf

JavaScript Object Notation format (JSON) in row-major order
http://www.bom.gov.au/fwo/IDT60701/IDT60701.94962.json